Eviapetrol I — SY5401 — position and weather

sailwx.info

Track history (hours):
 
Tides and Currents Weather Stations Pressure Air Temp Water Temp Dewpoint Dewpoint Depression Visibility Wind Speed Wind Dir Waves Ship Positions

Eviapetrol I

Last reported at 2016-Sep-25 12:32 UTC. Time now 2016-Sep-25 13:55 UTC.
Position N 37°54' E 023°04'.

Length 75 m; draft 4 m.

Type: Tanker. MMSI: 240285000.

Date/timePositionNaut miles runAvg speedWind from/ knotsBaromVisibWave heightAir tempDewpointWater temp
2016-Sep-25 12:32N 37°54' E 023°04'1010.2
2016-Sep-25 11:33N 37°56' E 023°17'8 8.0
2016-Sep-25 10:33N 37°60' E 023°26'5 4.5
2016-Sep-25 09:32N 38°02' E 023°30'0 0.0
2016-Sep-25 07:32N 38°02' E 023°30'0 0.0
2016-Sep-25 04:32N 38°02' E 023°30'0 0.0
2016-Sep-25 00:32N 38°02' E 023°30'1 0.4
2016-Sep-24 22:33N 38°02' E 023°31'3 2.9
2016-Sep-24 21:33N 38°02' E 023°35'1 0.3
2016-Sep-24 19:33N 38°02' E 023°36'0 0.0
2016-Sep-24 18:27N 38°02' E 023°36'0 0.0
2016-Sep-24 17:33N 38°02' E 023°36'0 0.0
2016-Sep-24 16:33N 38°02' E 023°36'0 0.0
2016-Sep-24 14:33N 38°02' E 023°36'0 0.0
2016-Sep-24 12:30N 38°02' E 023°36'1 0.6
2016-Sep-24 10:33N 38°01' E 023°35'2 2.2
2016-Sep-24 09:34N 38°02' E 023°32'0 0.0
2016-Sep-24 03:33N 38°02' E 023°32'0 0.0
2016-Sep-24 02:33N 38°02' E 023°32'0 0.0
2016-Sep-24 01:33N 38°02' E 023°32'0 0.0
2016-Sep-24 00:33N 38°02' E 023°32'0 0.0
2016-Sep-23 19:33N 38°02' E 023°32'0 0.0
2016-Sep-23 17:33N 38°02' E 023°32'0 0.0
2016-Sep-23 16:33N 38°02' E 023°32'0 0.0
2016-Sep-23 15:33N 38°02' E 023°32'0 0.1
2016-Sep-23 13:34N 38°02' E 023°32'22 0.5
2016-Sep-21 16:33N 37°41' E 023°42'21 3.0
2016-Sep-21 09:32N 38°02' E 023°36'0 0.0
2016-Sep-21 08:32N 38°02' E 023°36'0 0.0
2016-Sep-21 05:32N 38°02' E 023°36'0 0.0
2016-Sep-21 03:32N 38°02' E 023°36'0 0.0
2016-Sep-21 02:29N 38°02' E 023°36'4 0.5
2016-Sep-20 17:32N 38°02' E 023°30'6 1.9
2016-Sep-20 14:34N 37°58' E 023°26'1110.7
2016-Sep-20 13:32N 37°55' E 023°13'  
2016-Sep-18 02:32N 37°54' E 023°03'2 2.0
2016-Sep-18 01:30N 37°55' E 023°05'0 0.0
2016-Sep-18 00:33N 37°55' E 023°05'0 0.0
2016-Sep-17 22:33N 37°55' E 023°05'0 0.0
2016-Sep-17 21:30N 37°55' E 023°05'0 0.0
2016-Sep-17 20:33N 37°55' E 023°05'0 0.0
2016-Sep-17 19:15N 37°55' E 023°05'0 0.0
2016-Sep-17 13:33N 37°55' E 023°05'3 2.7
2016-Sep-17 12:33N 37°54' E 023°02'16 4.6
2016-Sep-17 09:04N 38°03' E 022°45'1010.6
2016-Sep-17 08:09N 38°08' E 022°34'710.8
2016-Sep-17 07:31N 38°11' E 022°27'  
Track history (hours):
 
Tides and Currents Weather Stations Pressure Air Temp Water Temp Dewpoint Dewpoint Depression Visibility Wind Speed Wind Dir Waves Ship Positions

Eviapetrol I

Last reported at 2016-Sep-25 12:32 UTC. Time now 2016-Sep-25 13:55 UTC.
Position N 37°54' E 023°04'.

Length 75 m; draft 4 m.

Type: Tanker. MMSI: 240285000.

Date/timePositionNaut miles runAvg speedWind from/ knotsBaromVisibWave heightAir tempDewpointWater temp
2016-Sep-25 12:32N 37°54' E 023°04'1010.2
2016-Sep-25 11:33N 37°56' E 023°17'8 8.0
2016-Sep-25 10:33N 37°60' E 023°26'5 4.5
2016-Sep-25 09:32N 38°02' E 023°30'0 0.0
2016-Sep-25 07:32N 38°02' E 023°30'0 0.0
2016-Sep-25 04:32N 38°02' E 023°30'0 0.0
2016-Sep-25 00:32N 38°02' E 023°30'1 0.4
2016-Sep-24 22:33N 38°02' E 023°31'3 2.9
2016-Sep-24 21:33N 38°02' E 023°35'1 0.3
2016-Sep-24 19:33N 38°02' E 023°36'0 0.0
2016-Sep-24 18:27N 38°02' E 023°36'0 0.0
2016-Sep-24 17:33N 38°02' E 023°36'0 0.0
2016-Sep-24 16:33N 38°02' E 023°36'0 0.0
2016-Sep-24 14:33N 38°02' E 023°36'0 0.0
2016-Sep-24 12:30N 38°02' E 023°36'1 0.6
2016-Sep-24 10:33N 38°01' E 023°35'2 2.2
2016-Sep-24 09:34N 38°02' E 023°32'0 0.0
2016-Sep-24 03:33N 38°02' E 023°32'0 0.0
2016-Sep-24 02:33N 38°02' E 023°32'0 0.0
2016-Sep-24 01:33N 38°02' E 023°32'0 0.0
2016-Sep-24 00:33N 38°02' E 023°32'0 0.0
2016-Sep-23 19:33N 38°02' E 023°32'0 0.0
2016-Sep-23 17:33N 38°02' E 023°32'0 0.0
2016-Sep-23 16:33N 38°02' E 023°32'0 0.0
2016-Sep-23 15:33N 38°02' E 023°32'0 0.1
2016-Sep-23 13:34N 38°02' E 023°32'22 0.5
2016-Sep-21 16:33N 37°41' E 023°42'21 3.0
2016-Sep-21 09:32N 38°02' E 023°36'0 0.0
2016-Sep-21 08:32N 38°02' E 023°36'0 0.0
2016-Sep-21 05:32N 38°02' E 023°36'0 0.0
2016-Sep-21 03:32N 38°02' E 023°36'0 0.0
2016-Sep-21 02:29N 38°02' E 023°36'4 0.5
2016-Sep-20 17:32N 38°02' E 023°30'6 1.9
2016-Sep-20 14:34N 37°58' E 023°26'1110.7
2016-Sep-20 13:32N 37°55' E 023°13'  
2016-Sep-18 02:32N 37°54' E 023°03'2 2.0
2016-Sep-18 01:30N 37°55' E 023°05'0 0.0
2016-Sep-18 00:33N 37°55' E 023°05'0 0.0
2016-Sep-17 22:33N 37°55' E 023°05'0 0.0
2016-Sep-17 21:30N 37°55' E 023°05'0 0.0
2016-Sep-17 20:33N 37°55' E 023°05'0 0.0
2016-Sep-17 19:15N 37°55' E 023°05'0 0.0
2016-Sep-17 13:33N 37°55' E 023°05'3 2.7
2016-Sep-17 12:33N 37°54' E 023°02'16 4.6
2016-Sep-17 09:04N 38°03' E 022°45'1010.6
2016-Sep-17 08:09N 38°08' E 022°34'710.8
2016-Sep-17 07:31N 38°11' E 022°27'  

Dump ship's entire track history